createdAt,value
2022-11-03T00:03:19.395Z,1.9
2022-11-03T00:08:19.410Z,1.9
2022-11-03T00:13:19.415Z,2.0
2022-11-03T00:18:19.407Z,2.2
2022-11-03T00:23:19.420Z,2.3
2022-11-03T00:28:19.413Z,2.2
2022-11-03T00:33:19.415Z,2.2
2022-11-03T00:38:19.407Z,2.4
2022-11-03T00:43:19.417Z,2.2
2022-11-03T00:48:19.418Z,2.4
2022-11-03T00:53:19.411Z,2.3
2022-11-03T00:58:19.415Z,1.7
2022-11-03T01:03:19.422Z,1.8
2022-11-03T01:08:20.453Z,2.2
2022-11-03T01:13:19.425Z,2.1
2022-11-03T01:18:19.426Z,2.4
2022-11-03T01:23:19.452Z,2.2
2022-11-03T01:28:19.440Z,2.4
2022-11-03T01:33:19.428Z,2.7
2022-11-03T01:38:19.437Z,1.8
2022-11-03T01:43:19.427Z,2.9
2022-11-03T01:48:19.474Z,2.0
2022-11-03T01:53:19.435Z,2.1
2022-11-03T01:58:19.443Z,2.2
2022-11-03T02:03:19.436Z,2.2
2022-11-03T02:08:19.448Z,1.9
2022-11-03T02:13:19.441Z,2.4
2022-11-03T02:18:19.443Z,1.9
2022-11-03T02:23:19.449Z,1.9
2022-11-03T02:28:19.450Z,1.9
2022-11-03T02:33:19.453Z,2.0
2022-11-03T02:38:19.443Z,2.0
2022-11-03T02:43:19.448Z,1.9
2022-11-03T02:48:19.466Z,1.8
2022-11-03T02:53:19.450Z,1.7
2022-11-03T02:58:19.464Z,2.1
2022-11-03T03:03:19.461Z,1.7
2022-11-03T03:08:19.475Z,1.8
2022-11-03T03:13:19.468Z,2.1
2022-11-03T03:18:19.460Z,2.0
2022-11-03T03:23:19.463Z,1.8
2022-11-03T03:28:19.463Z,2.0
2022-11-03T03:33:19.509Z,1.7
2022-11-03T03:38:19.472Z,2.5
2022-11-03T03:43:19.474Z,1.5
2022-11-03T03:48:19.476Z,2.3
2022-11-03T03:53:19.491Z,1.8
2022-11-03T03:58:19.471Z,2.1
2022-11-03T04:03:19.478Z,1.9
2022-11-03T04:08:19.483Z,1.9
2022-11-03T04:13:19.482Z,1.6
2022-11-03T04:18:19.486Z,2.2
2022-11-03T04:23:19.482Z,1.8
2022-11-03T04:28:19.481Z,1.9
2022-11-03T04:33:19.492Z,1.7
2022-11-03T04:38:19.486Z,1.9
2022-11-03T04:43:19.529Z,1.9
2022-11-03T04:48:19.504Z,1.7
2022-11-03T04:53:19.496Z,2.1
2022-11-03T04:58:19.502Z,2.1
2022-11-03T05:03:19.497Z,1.8
2022-11-03T05:08:19.517Z,1.9
2022-11-03T05:13:19.510Z,2.0
2022-11-03T05:18:19.507Z,1.6
2022-11-03T05:23:19.507Z,2.1
2022-11-03T05:28:19.509Z,1.7
2022-11-03T05:33:19.508Z,1.8
2022-11-03T05:38:19.513Z,2.5
2022-11-03T05:43:19.525Z,1.6
2022-11-03T05:48:19.606Z,2.2
2022-11-03T05:53:19.520Z,1.8
2022-11-03T05:58:19.519Z,2.1
2022-11-03T06:03:19.517Z,1.9
2022-11-03T06:08:19.593Z,2.2
2022-11-03T06:13:19.523Z,2.1
2022-11-03T06:18:19.524Z,2.1
2022-11-03T06:23:19.531Z,1.7
2022-11-03T06:28:19.527Z,1.7
2022-11-03T06:33:19.523Z,2.5
2022-11-03T06:38:19.531Z,1.8
2022-11-03T06:43:19.535Z,2.8
2022-11-03T06:48:19.532Z,1.8
2022-11-03T06:53:19.546Z,2.3
2022-11-03T06:58:19.541Z,1.8
2022-11-03T07:03:19.541Z,1.9
2022-11-03T07:08:19.547Z,2.0
2022-11-03T07:13:19.546Z,2.1
2022-11-03T07:18:19.544Z,2.1
2022-11-03T07:23:19.544Z,2.5
2022-11-03T07:28:19.553Z,2.2
2022-11-03T07:33:19.552Z,2.0
2022-11-03T07:38:19.552Z,2.1
2022-11-03T07:43:19.549Z,2.1
2022-11-03T07:48:19.556Z,2.1
2022-11-03T07:53:24.818Z,2.3
2022-11-03T07:58:19.562Z,2.9
2022-11-03T08:03:19.561Z,2.4
2022-11-03T08:08:19.572Z,2.4
2022-11-03T08:13:19.568Z,2.0
2022-11-03T08:18:19.567Z,2.4
2022-11-03T08:23:25.713Z,2.2
2022-11-03T08:28:19.568Z,2.6
2022-11-03T08:33:19.653Z,2.2
2022-11-03T08:38:19.584Z,2.1
2022-11-03T08:43:19.575Z,2.2
2022-11-03T08:48:19.583Z,2.4
2022-11-03T08:53:19.581Z,2.2
2022-11-03T08:58:19.584Z,2.1
2022-11-03T09:03:19.827Z,2.2
2022-11-03T09:13:19.587Z,2.8
2022-11-03T09:18:19.587Z,2.4
2022-11-03T09:23:19.596Z,2.2
2022-11-03T09:28:19.599Z,2.5
2022-11-03T09:33:19.590Z,2.3
2022-11-03T09:38:19.599Z,2.2
2022-11-03T09:43:19.596Z,2.2
2022-11-03T09:48:19.601Z,2.3
2022-11-03T09:53:19.602Z,2.5
2022-11-03T09:58:19.609Z,2.4
2022-11-03T10:03:19.606Z,2.3
2022-11-03T10:08:22.410Z,2.5
2022-11-03T10:13:19.609Z,2.2
2022-11-03T10:18:19.614Z,2.2
2022-11-03T10:23:19.623Z,2.0
2022-11-03T10:28:19.621Z,2.7
2022-11-03T10:33:19.626Z,2.3
2022-11-03T10:38:19.634Z,2.0
2022-11-03T10:43:19.629Z,2.4
2022-11-03T10:48:19.624Z,2.9
2022-11-03T10:53:19.727Z,2.2
2022-11-03T10:58:19.629Z,2.5
2022-11-03T11:03:20.800Z,2.8
2022-11-03T11:08:19.714Z,1.9
2022-11-03T11:13:19.637Z,2.1
2022-11-03T11:23:19.650Z,2.1
2022-11-03T11:28:19.655Z,2.0
2022-11-03T11:33:19.648Z,2.0
2022-11-03T11:38:19.654Z,1.8
2022-11-03T11:43:19.648Z,1.7
2022-11-03T11:48:19.658Z,1.7
2022-11-03T11:53:19.652Z,2.4
2022-11-03T11:58:19.651Z,2.2
2022-11-03T12:03:19.699Z,2.2
2022-11-03T12:08:19.657Z,2.1
2022-11-03T12:13:19.662Z,2.3
2022-11-03T12:18:19.663Z,2.4
2022-11-03T12:23:19.671Z,2.3
2022-11-03T12:28:19.668Z,2.2
2022-11-03T12:33:19.663Z,2.2
2022-11-03T12:38:19.669Z,2.2
2022-11-03T12:43:19.676Z,2.2
2022-11-03T12:48:19.674Z,2.4
2022-11-03T12:53:19.673Z,2.1
2022-11-03T12:58:19.677Z,2.2
2022-11-03T13:03:19.679Z,2.0
2022-11-03T13:08:19.684Z,1.9
2022-11-03T13:13:19.684Z,1.7
2022-11-03T13:18:19.687Z,2.5
2022-11-03T13:23:22.940Z,1.8
2022-11-03T13:28:19.700Z,2.0
2022-11-03T13:33:19.686Z,1.7
2022-11-03T13:38:19.693Z,2.1
2022-11-03T13:43:19.695Z,2.2
2022-11-03T13:49:21.599Z,2.2
2022-11-03T14:08:19.706Z,1.6
2022-11-03T14:13:19.704Z,1.6
2022-11-03T14:18:19.706Z,1.7
2022-11-03T14:23:19.722Z,2.0
2022-11-03T14:28:25.930Z,1.6
2022-11-03T14:33:19.717Z,1.4
2022-11-03T14:38:19.715Z,1.7
2022-11-03T14:43:19.721Z,1.5
2022-11-03T14:48:19.737Z,2.0
2022-11-03T14:53:19.713Z,1.7
2022-11-03T14:58:19.718Z,2.0
2022-11-03T15:03:19.716Z,1.8
2022-11-03T15:08:19.746Z,2.2
2022-11-03T15:13:19.716Z,2.3
2022-11-03T15:18:19.809Z,2.1
2022-11-03T15:28:19.727Z,2.4
2022-11-03T15:33:19.728Z,2.3
2022-11-03T15:38:19.800Z,2.0
2022-11-03T15:43:19.809Z,2.0
2022-11-03T15:53:19.845Z,2.1
2022-11-03T15:58:19.793Z,2.3
2022-11-03T16:03:19.872Z,2.2
2022-11-03T16:08:19.803Z,2.3
2022-11-03T16:13:19.814Z,2.4
2022-11-03T16:18:19.801Z,2.4
2022-11-03T16:23:19.801Z,2.8
2022-11-03T16:28:19.797Z,2.6
2022-11-03T16:33:19.801Z,2.9
2022-11-03T16:38:19.803Z,3.7
2022-11-03T16:48:19.803Z,3.0
2022-11-03T16:53:19.808Z,2.6
2022-11-03T16:58:19.809Z,3.0
2022-11-03T17:03:19.806Z,3.4
2022-11-03T17:08:46.797Z,3.6
2022-11-03T17:13:19.816Z,5.1
2022-11-03T17:18:19.809Z,3.7
2022-11-03T17:23:19.817Z,3.4
2022-11-03T17:28:19.823Z,3.3
2022-11-03T17:33:19.818Z,3.8
2022-11-03T17:38:19.819Z,4.4
2022-11-03T17:43:19.839Z,4.3
2022-11-03T17:48:19.831Z,3.4
2022-11-03T17:53:19.840Z,3.9
2022-11-03T17:58:19.835Z,4.1
2022-11-03T18:03:19.829Z,3.5
2022-11-03T18:13:19.830Z,3.3
2022-11-03T18:23:19.844Z,3.5
2022-11-03T18:28:19.846Z,3.5
2022-11-03T18:33:19.841Z,3.3
2022-11-03T18:38:19.842Z,5.4
2022-11-03T18:43:19.850Z,4.2
2022-11-03T18:48:19.842Z,3.3
2022-11-03T18:53:19.844Z,4.0
2022-11-03T18:58:19.843Z,4.1
2022-11-03T19:03:19.850Z,5.0
2022-11-03T19:08:19.869Z,3.2
2022-11-03T19:13:19.855Z,3.6
2022-11-03T19:18:19.850Z,2.7
2022-11-03T19:23:19.867Z,2.7
2022-11-03T19:28:19.867Z,2.6
2022-11-03T19:33:19.885Z,2.6
2022-11-03T19:38:19.857Z,2.5
2022-11-03T19:43:19.864Z,2.9
2022-11-03T19:48:24.502Z,2.8
2022-11-03T19:53:19.861Z,2.6
2022-11-03T19:58:19.872Z,2.6
2022-11-03T20:03:19.877Z,2.5
2022-11-03T20:08:19.863Z,2.8
2022-11-03T20:13:19.873Z,2.2
2022-11-03T20:18:19.871Z,2.5
2022-11-03T20:23:19.878Z,2.4
2022-11-03T20:33:19.878Z,2.7
2022-11-03T20:38:19.879Z,3.9
2022-11-03T20:43:19.877Z,3.3
2022-11-03T20:48:19.880Z,2.8
2022-11-03T20:53:19.901Z,3.2
2022-11-03T20:58:19.896Z,2.7
2022-11-03T21:03:38.120Z,3.4
2022-11-03T21:13:19.897Z,3.4
2022-11-03T21:18:19.886Z,3.0
2022-11-03T21:23:19.888Z,3.2
2022-11-03T21:28:19.907Z,3.3
2022-11-03T21:33:19.905Z,3.3
2022-11-03T21:38:19.905Z,3.4
2022-11-03T21:48:20.520Z,3.6
2022-11-03T21:53:19.906Z,3.2
2022-11-03T21:58:19.905Z,3.7
2022-11-03T22:03:19.933Z,3.5
2022-11-03T22:08:20.037Z,3.5
2022-11-03T22:13:19.906Z,3.8
2022-11-03T22:18:19.912Z,4.1
2022-11-03T22:23:19.910Z,3.9
2022-11-03T22:33:19.925Z,3.3
2022-11-03T22:38:20.068Z,3.2
2022-11-03T22:43:19.915Z,3.2
2022-11-03T22:48:19.917Z,3.5
2022-11-03T22:53:19.920Z,4.0
2022-11-03T22:58:19.927Z,4.2
2022-11-03T23:03:19.924Z,3.9
2022-11-03T23:08:20.090Z,3.9
2022-11-03T23:18:19.929Z,3.1
2022-11-03T23:23:19.935Z,2.8
2022-11-03T23:28:33.278Z,2.8
2022-11-03T23:33:19.933Z,3.1
2022-11-03T23:38:19.930Z,2.9
2022-11-03T23:43:19.939Z,3.2
2022-11-03T23:48:19.961Z,3.3
2022-11-03T23:53:19.939Z,4.0
2022-11-03T23:58:19.936Z,3.8
